createdAt,value
2022-07-29T00:00:58.816Z,26.64
2022-07-29T00:03:03.498Z,26.64
2022-07-29T00:05:08.582Z,26.63
2022-07-29T00:07:13.338Z,26.6
2022-07-29T00:09:18.646Z,26.61
2022-07-29T00:11:23.254Z,26.61
2022-07-29T00:13:31.911Z,26.59
2022-07-29T00:15:37.019Z,26.59
2022-07-29T00:17:41.724Z,26.57
2022-07-29T00:19:46.553Z,26.56
2022-07-29T00:21:51.189Z,26.55
2022-07-29T00:23:55.946Z,26.54
2022-07-29T00:26:00.657Z,26.53
2022-07-29T00:28:05.444Z,26.53
2022-07-29T00:30:10.065Z,26.53
2022-07-29T00:32:14.791Z,26.52
2022-07-29T00:34:19.307Z,26.52
2022-07-29T00:36:24.097Z,26.53
2022-07-29T00:38:28.959Z,26.49
2022-07-29T00:40:33.757Z,26.46
2022-07-29T00:42:38.511Z,26.46
2022-07-29T00:44:43.548Z,26.47
2022-07-29T00:46:48.242Z,26.44
2022-07-29T00:48:53.429Z,26.46
2022-07-29T00:50:58.226Z,26.46
2022-07-29T00:53:02.947Z,26.46
2022-07-29T00:55:08.719Z,26.44
2022-07-29T00:57:13.482Z,26.44
2022-07-29T00:59:18.488Z,26.42
2022-07-29T01:01:23.355Z,26.4
2022-07-29T01:03:28.353Z,26.39
2022-07-29T01:05:48.614Z,26.38
2022-07-29T01:07:55.860Z,26.39
2022-07-29T01:10:00.707Z,26.36
2022-07-29T01:12:05.334Z,26.36
2022-07-29T01:14:13.315Z,26.35
2022-07-29T01:16:19.026Z,26.35
2022-07-29T01:18:24.267Z,26.34
2022-07-29T01:20:31.223Z,26.34
2022-07-29T01:22:36.224Z,26.33
2022-07-29T01:24:40.838Z,26.32
2022-07-29T01:26:45.361Z,26.29
2022-07-29T01:28:51.104Z,26.26
2022-07-29T01:30:55.745Z,26.25
2022-07-29T01:33:02.297Z,26.25
2022-07-29T01:35:07.338Z,26.23
2022-07-29T01:37:11.832Z,26.22
2022-07-29T01:39:16.575Z,26.23
2022-07-29T01:41:21.395Z,26.23
2022-07-29T01:43:26.010Z,26.25
2022-07-29T01:45:30.636Z,26.24
2022-07-29T01:47:35.669Z,26.25
2022-07-29T01:49:40.466Z,26.26
2022-07-29T01:51:45.215Z,26.26
2022-07-29T01:53:49.735Z,26.24
2022-07-29T01:55:54.360Z,26.23
2022-07-29T01:58:03.596Z,26.21
2022-07-29T02:00:08.517Z,26.21
2022-07-29T02:02:13.088Z,26.21
2022-07-29T02:04:29.045Z,26.19
2022-07-29T02:06:34.375Z,26.2
2022-07-29T02:08:39.078Z,26.2
2022-07-29T02:10:43.809Z,26.19
2022-07-29T02:12:50.818Z,26.18
2022-07-29T02:14:55.730Z,26.18
2022-07-29T02:17:00.231Z,26.18
2022-07-29T02:19:04.749Z,26.19
2022-07-29T02:21:14.983Z,26.22
2022-07-29T02:23:20.456Z,26.23
2022-07-29T02:25:25.168Z,26.23
2022-07-29T02:27:42.591Z,26.22
2022-07-29T02:29:47.076Z,26.21
2022-07-29T02:31:51.833Z,26.19
2022-07-29T02:33:56.354Z,26.17
2022-07-29T02:36:00.976Z,26.15
2022-07-29T02:38:05.490Z,26.16
2022-07-29T02:40:10.127Z,26.15
2022-07-29T02:42:14.731Z,26.13
2022-07-29T02:44:19.797Z,26.12
2022-07-29T02:46:28.183Z,26.14
2022-07-29T02:48:33.817Z,26.12
2022-07-29T02:50:38.543Z,26.12
2022-07-29T02:52:43.267Z,26.12
2022-07-29T02:54:47.787Z,26.12
2022-07-29T02:56:52.409Z,26.12
2022-07-29T02:58:57.026Z,26.09
2022-07-29T03:01:01.552Z,26.06
2022-07-29T03:03:06.166Z,26.06
2022-07-29T03:05:10.993Z,26.07
2022-07-29T03:07:15.818Z,26.06
2022-07-29T03:09:20.393Z,26.08
2022-07-29T03:11:41.558Z,26.06
2022-07-29T03:13:54.774Z,26.05
2022-07-29T03:15:59.391Z,26.05
2022-07-29T03:18:04.255Z,26.06
2022-07-29T03:20:08.836Z,26.03
2022-07-29T03:22:13.349Z,26.02
2022-07-29T03:24:21.657Z,26.02
2022-07-29T03:26:26.180Z,26.03
2022-07-29T03:28:30.900Z,26.03
2022-07-29T03:30:39.520Z,26.03
2022-07-29T03:32:48.753Z,26.03
2022-07-29T03:34:55.823Z,26.01
2022-07-29T03:37:00.459Z,26.01
2022-07-29T03:39:05.177Z,26.01
2022-07-29T03:41:09.896Z,25.99
2022-07-29T03:43:14.516Z,26
2022-07-29T03:45:19.135Z,26.01
2022-07-29T03:47:27.003Z,26
2022-07-29T03:50:03.195Z,25.99
2022-07-29T03:52:07.825Z,26
2022-07-29T03:54:12.333Z,25.99
2022-07-29T03:56:17.162Z,25.97
2022-07-29T03:58:21.779Z,25.97
2022-07-29T04:00:26.619Z,25.94
2022-07-29T04:02:31.150Z,25.92
2022-07-29T04:04:35.963Z,25.92
2022-07-29T04:06:40.575Z,25.93
2022-07-29T04:08:45.089Z,25.91
2022-07-29T04:10:49.919Z,25.92
2022-07-29T04:12:54.433Z,25.92
2022-07-29T04:14:59.260Z,25.92
2022-07-29T04:17:03.824Z,25.92
2022-07-29T04:19:08.989Z,25.92
2022-07-29T04:21:13.741Z,25.92
2022-07-29T04:23:18.871Z,25.92
2022-07-29T04:25:23.698Z,25.92
2022-07-29T04:27:28.212Z,25.92
2022-07-29T04:29:32.835Z,25.92
2022-07-29T04:31:37.479Z,25.92
2022-07-29T04:33:42.381Z,25.93
2022-07-29T04:35:50.670Z,25.93
2022-07-29T04:37:59.613Z,25.93
2022-07-29T04:40:04.343Z,25.93
2022-07-29T04:42:08.955Z,25.93
2022-07-29T04:44:14.038Z,25.92
2022-07-29T04:46:21.522Z,25.95
2022-07-29T04:48:28.609Z,25.98
2022-07-29T04:50:33.587Z,25.99
2022-07-29T04:52:38.101Z,25.98
2022-07-29T04:54:42.627Z,25.96
2022-07-29T04:56:47.245Z,25.94
2022-07-29T04:58:52.484Z,25.94
2022-07-29T05:00:56.992Z,25.93
2022-07-29T05:03:01.763Z,25.92
2022-07-29T05:05:06.620Z,25.92
2022-07-29T05:07:11.373Z,25.9
2022-07-29T05:09:16.027Z,25.91
2022-07-29T05:11:21.910Z,25.92
2022-07-29T05:13:45.127Z,25.93
2022-07-29T05:15:51.606Z,25.94
2022-07-29T05:17:56.391Z,25.93
2022-07-29T05:20:01.217Z,25.92
2022-07-29T05:22:05.845Z,25.92
2022-07-29T05:24:10.461Z,25.9
2022-07-29T05:26:15.491Z,25.9
2022-07-29T05:28:20.107Z,25.91
2022-07-29T05:30:24.634Z,25.89
2022-07-29T05:32:29.454Z,25.9
2022-07-29T05:34:34.183Z,25.87
2022-07-29T05:36:38.805Z,25.87
2022-07-29T05:38:43.475Z,25.86
2022-07-29T05:40:48.149Z,25.86
2022-07-29T05:42:52.763Z,25.86
2022-07-29T05:44:57.393Z,25.87
2022-07-29T05:47:02.006Z,25.9
2022-07-29T05:49:06.678Z,25.9
2022-07-29T05:51:11.560Z,25.92
2022-07-29T05:53:19.285Z,25.95
2022-07-29T05:55:25.207Z,25.98
2022-07-29T05:57:29.721Z,26.02
2022-07-29T05:59:34.446Z,26.05
2022-07-29T06:01:39.149Z,26.08
2022-07-29T06:03:44.204Z,26.11
2022-07-29T06:05:48.823Z,26.11
2022-07-29T06:07:53.441Z,26.11
2022-07-29T06:09:58.093Z,26.11
2022-07-29T06:12:02.785Z,26.13
2022-07-29T06:14:07.431Z,26.13
2022-07-29T06:16:12.040Z,26.16
2022-07-29T06:18:33.750Z,26.17
2022-07-29T06:20:38.278Z,26.17
2022-07-29T06:22:43.019Z,26.18
2022-07-29T06:24:47.617Z,26.18
2022-07-29T06:26:52.127Z,26.18
2022-07-29T06:28:56.647Z,26.18
2022-07-29T06:31:01.285Z,26.18
2022-07-29T06:33:06.047Z,26.16
2022-07-29T06:35:38.094Z,26.15
2022-07-29T06:37:58.099Z,26.07
2022-07-29T06:40:04.551Z,26.05
2022-07-29T06:42:08.979Z,26.09
2022-07-29T06:44:13.754Z,26.12
2022-07-29T06:46:21.259Z,26.15
2022-07-29T06:48:26.646Z,26.16
2022-07-29T06:50:31.187Z,26.22
2022-07-29T06:52:35.601Z,26.25
2022-07-29T06:54:40.222Z,26.26
2022-07-29T06:56:44.972Z,26.25
2022-07-29T06:58:49.567Z,26.21
2022-07-29T07:00:54.244Z,26.2
2022-07-29T07:02:59.114Z,26.19
2022-07-29T07:05:03.634Z,26.17
2022-07-29T07:07:08.151Z,26.16
2022-07-29T07:09:12.880Z,26.17
2022-07-29T07:11:17.599Z,26.17
2022-07-29T07:13:22.220Z,26.11
2022-07-29T07:15:38.774Z,26.08
2022-07-29T07:17:44.563Z,26.05
2022-07-29T07:19:49.292Z,26.03
2022-07-29T07:21:53.920Z,26.02
2022-07-29T07:24:00.583Z,26.02
2022-07-29T07:26:05.410Z,26.02
2022-07-29T07:28:11.169Z,26.02
2022-07-29T07:30:15.893Z,26.02
2022-07-29T07:32:20.489Z,26.02
2022-07-29T07:34:28.262Z,26.02
2022-07-29T07:36:34.451Z,25.99
2022-07-29T07:38:38.974Z,25.99
2022-07-29T07:40:43.698Z,26.01
2022-07-29T07:42:48.526Z,26.02
2022-07-29T07:45:12.398Z,26.03
2022-07-29T07:47:20.457Z,26.05
2022-07-29T07:49:26.464Z,26.06
2022-07-29T07:51:31.378Z,26.05
2022-07-29T07:53:36.108Z,26.07
2022-07-29T07:56:07.886Z,26.09
2022-07-29T07:58:16.057Z,26.11
2022-07-29T08:00:22.909Z,26.11
2022-07-29T08:02:28.443Z,26.11
2022-07-29T08:04:33.196Z,26.12
2022-07-29T08:06:37.715Z,26.14
2022-07-29T08:08:42.797Z,26.15
2022-07-29T08:10:47.366Z,26.16
2022-07-29T08:12:51.878Z,26.18
2022-07-29T08:14:56.607Z,26.18
2022-07-29T08:17:01.344Z,26.19
2022-07-29T08:19:06.157Z,26.2
2022-07-29T08:21:10.986Z,26.2
2022-07-29T08:23:19.411Z,26.22
2022-07-29T08:25:24.219Z,26.23
2022-07-29T08:27:44.750Z,26.23
2022-07-29T08:29:49.532Z,26.2
2022-07-29T08:31:54.507Z,26.22
2022-07-29T08:33:59.943Z,26.24
2022-07-29T08:36:04.724Z,26.25
2022-07-29T08:38:09.347Z,26.26
2022-07-29T08:40:14.080Z,26.28
2022-07-29T08:42:18.794Z,26.27
2022-07-29T08:44:29.611Z,26.29
2022-07-29T08:46:35.824Z,26.3
2022-07-29T08:48:40.480Z,26.3
2022-07-29T08:50:46.148Z,26.32
2022-07-29T08:52:55.446Z,26.33
2022-07-29T08:55:03.721Z,26.34
2022-07-29T08:57:08.341Z,26.35
2022-07-29T08:59:17.062Z,26.35
2022-07-29T09:01:35.401Z,26.33
2022-07-29T09:03:49.709Z,26.35
2022-07-29T09:05:54.473Z,26.36
2022-07-29T09:07:59.031Z,26.33
2022-07-29T09:10:03.731Z,26.33
2022-07-29T09:12:08.541Z,26.33
2022-07-29T09:14:13.157Z,26.31
2022-07-29T09:16:31.827Z,26.33
2022-07-29T09:18:57.325Z,26.31
2022-07-29T09:21:01.948Z,26.33
2022-07-29T09:23:06.677Z,26.35
2022-07-29T09:25:11.285Z,26.36
2022-07-29T09:27:16.212Z,26.37
2022-07-29T09:29:20.889Z,26.38
2022-07-29T09:31:26.555Z,26.4
2022-07-29T09:33:31.407Z,26.39
2022-07-29T09:35:36.087Z,26.38
2022-07-29T09:37:40.858Z,26.39
2022-07-29T09:39:45.386Z,26.39
2022-07-29T09:41:51.224Z,26.38
2022-07-29T09:43:55.844Z,26.36
2022-07-29T09:46:00.468Z,26.36
2022-07-29T09:48:05.092Z,26.38
2022-07-29T09:50:09.704Z,26.39
2022-07-29T09:52:14.323Z,26.39
2022-07-29T09:54:18.952Z,26.4
2022-07-29T09:56:23.565Z,26.39
2022-07-29T09:58:28.393Z,26.39
2022-07-29T10:00:33.157Z,26.38
2022-07-29T10:02:38.048Z,26.4
2022-07-29T10:04:42.664Z,26.4
2022-07-29T10:06:47.287Z,26.41
2022-07-29T10:08:52.110Z,26.42
2022-07-29T10:10:56.837Z,26.43
2022-07-29T10:13:06.302Z,26.44
2022-07-29T10:15:18.773Z,26.45
2022-07-29T10:17:23.393Z,26.48
2022-07-29T10:19:28.015Z,26.46
2022-07-29T10:21:35.717Z,26.48
2022-07-29T10:23:46.708Z,26.5
2022-07-29T10:25:52.021Z,26.51
2022-07-29T10:27:56.752Z,26.52
2022-07-29T10:30:01.462Z,26.52
2022-07-29T10:32:06.389Z,26.54
2022-07-29T10:34:11.833Z,26.53
2022-07-29T10:36:16.960Z,26.55
2022-07-29T10:38:25.983Z,26.56
2022-07-29T10:40:31.529Z,26.56
2022-07-29T10:42:39.425Z,26.57
2022-07-29T10:44:44.870Z,26.57
2022-07-29T10:46:49.962Z,26.57
2022-07-29T10:48:54.848Z,26.56
2022-07-29T10:51:04.177Z,26.57
2022-07-29T10:53:11.023Z,26.58
2022-07-29T10:55:19.235Z,26.59
2022-07-29T10:57:52.985Z,26.61
2022-07-29T11:00:02.478Z,26.63
2022-07-29T11:02:28.151Z,26.63
2022-07-29T11:04:48.552Z,26.65
2022-07-29T11:06:54.017Z,26.66
2022-07-29T11:09:06.530Z,26.67
2022-07-29T11:11:15.827Z,26.67
2022-07-29T11:13:24.885Z,26.67
2022-07-29T11:15:44.061Z,26.68
2022-07-29T11:17:52.215Z,26.67
2022-07-29T11:20:02.196Z,26.68
2022-07-29T11:22:07.872Z,26.69
2022-07-29T11:24:29.002Z,26.69
2022-07-29T11:26:34.278Z,26.7
2022-07-29T11:28:43.406Z,26.69
2022-07-29T11:30:48.435Z,26.69
2022-07-29T11:32:53.566Z,26.69
2022-07-29T11:34:59.724Z,26.7
2022-07-29T11:37:27.810Z,26.71
2022-07-29T11:39:45.213Z,26.7
2022-07-29T11:41:50.759Z,26.72
2022-07-29T11:44:04.284Z,26.73
2022-07-29T11:46:13.928Z,26.72
2022-07-29T11:48:31.830Z,26.7
2022-07-29T11:50:44.446Z,26.7
2022-07-29T11:52:52.159Z,26.71
2022-07-29T11:55:00.700Z,26.71
2022-07-29T11:57:14.917Z,26.72
2022-07-29T11:59:20.971Z,26.72
2022-07-29T12:01:36.034Z,26.74
2022-07-29T12:03:40.760Z,26.72
2022-07-29T12:05:51.699Z,26.68
2022-07-29T12:08:00.043Z,26.63
2022-07-29T12:10:04.561Z,26.62
2022-07-29T12:12:32.214Z,26.6
2022-07-29T12:14:37.151Z,26.57
2022-07-29T12:16:42.541Z,26.56
2022-07-29T12:18:48.951Z,26.58
2022-07-29T12:20:53.572Z,26.59
2022-07-29T12:22:59.005Z,26.6
2022-07-29T12:25:30.237Z,26.6
2022-07-29T12:27:40.420Z,26.59
2022-07-29T12:29:48.017Z,26.61
2022-07-29T12:31:53.688Z,26.62
2022-07-29T12:34:04.304Z,26.63
2022-07-29T12:36:12.988Z,26.64
2022-07-29T12:38:22.189Z,26.66
2022-07-29T12:40:26.886Z,26.66
2022-07-29T12:42:31.498Z,26.68
2022-07-29T12:44:36.425Z,26.69
2022-07-29T12:46:41.594Z,26.67
2022-07-29T12:48:46.494Z,26.68
2022-07-29T12:50:51.410Z,26.68
2022-07-29T12:52:56.029Z,26.68
2022-07-29T12:55:00.650Z,26.69
2022-07-29T12:57:05.578Z,26.69
2022-07-29T12:59:23.002Z,26.71
2022-07-29T13:01:28.951Z,26.72
2022-07-29T13:03:35.681Z,26.75
2022-07-29T13:05:44.577Z,26.76
2022-07-29T13:07:54.886Z,26.78
2022-07-29T13:10:03.081Z,26.79
2022-07-29T13:12:07.833Z,26.82
2022-07-29T13:14:12.654Z,26.85
2022-07-29T13:16:17.328Z,26.86
2022-07-29T13:18:22.188Z,26.89
2022-07-29T13:20:29.277Z,26.89
2022-07-29T13:22:33.899Z,26.91
2022-07-29T13:24:38.621Z,26.91
2022-07-29T13:26:43.251Z,26.9
2022-07-29T13:28:47.864Z,26.87
2022-07-29T13:30:52.736Z,26.88
2022-07-29T13:32:57.636Z,26.9
2022-07-29T13:35:05.021Z,26.95
2022-07-29T13:37:10.144Z,26.99
2022-07-29T13:39:14.663Z,27.01
2022-07-29T13:41:19.215Z,27.03
2022-07-29T13:43:23.081Z,27.06
2022-07-29T13:45:29.011Z,27.08
2022-07-29T13:47:33.869Z,27.09
2022-07-29T13:49:38.890Z,27.11
2022-07-29T13:51:43.512Z,27.13
2022-07-29T13:53:48.237Z,27.14
2022-07-29T13:55:52.854Z,27.15
2022-07-29T13:57:57.887Z,27.15
2022-07-29T14:00:02.651Z,27.17
2022-07-29T14:02:07.226Z,27.17
2022-07-29T14:04:12.212Z,27.2
2022-07-29T14:06:17.305Z,27.2
2022-07-29T14:08:26.118Z,27.21
2022-07-29T14:10:30.829Z,27.21
2022-07-29T14:12:35.462Z,27.23
2022-07-29T14:14:40.072Z,27.25
2022-07-29T14:16:47.666Z,27.24
2022-07-29T14:18:56.481Z,27.25
2022-07-29T14:21:01.187Z,27.26
2022-07-29T14:23:05.929Z,27.25
2022-07-29T14:25:14.819Z,27.27
2022-07-29T14:27:34.994Z,27.28
2022-07-29T14:29:45.811Z,27.3
2022-07-29T14:31:50.481Z,27.32
2022-07-29T14:33:57.065Z,27.35
2022-07-29T14:36:07.242Z,27.35
2022-07-29T14:38:11.865Z,27.36
2022-07-29T14:40:16.501Z,27.39
2022-07-29T14:42:21.103Z,27.39
2022-07-29T14:44:25.828Z,27.39
2022-07-29T14:46:31.041Z,27.33
2022-07-29T14:48:35.887Z,27.33
2022-07-29T14:50:40.471Z,27.35
2022-07-29T14:52:45.026Z,27.37
2022-07-29T14:54:51.799Z,27.44
2022-07-29T14:56:56.198Z,27.48
2022-07-29T14:59:01.313Z,27.5
2022-07-29T15:01:05.926Z,27.52
2022-07-29T15:03:11.140Z,27.53
2022-07-29T15:05:27.499Z,27.52
2022-07-29T15:07:32.013Z,27.52
2022-07-29T15:09:40.057Z,27.51
2022-07-29T15:11:53.445Z,27.51
2022-07-29T15:13:58.579Z,27.5
2022-07-29T15:16:05.503Z,27.48
2022-07-29T15:18:10.177Z,27.48
2022-07-29T15:20:14.897Z,27.48
2022-07-29T15:22:19.415Z,27.5
2022-07-29T15:24:24.042Z,27.5
2022-07-29T15:26:28.772Z,27.53
2022-07-29T15:28:33.492Z,27.52
2022-07-29T15:30:38.212Z,27.54
2022-07-29T15:32:42.837Z,27.55
2022-07-29T15:34:47.451Z,27.55
2022-07-29T15:36:53.270Z,27.54
2022-07-29T15:38:58.333Z,27.55
2022-07-29T15:41:02.961Z,27.55
2022-07-29T15:43:07.579Z,27.56
2022-07-29T15:45:12.300Z,27.56
2022-07-29T15:47:16.823Z,27.57
2022-07-29T15:49:21.367Z,27.58
2022-07-29T15:51:27.708Z,27.58
2022-07-29T15:53:32.321Z,27.59
2022-07-29T15:55:39.702Z,27.6
2022-07-29T15:57:49.245Z,27.61
2022-07-29T15:59:53.970Z,27.62
2022-07-29T16:01:58.651Z,27.62
2022-07-29T16:04:03.248Z,27.62
2022-07-29T16:06:08.132Z,27.62
2022-07-29T16:08:12.662Z,27.63
2022-07-29T16:10:17.276Z,27.61
2022-07-29T16:12:21.894Z,27.61
2022-07-29T16:14:28.131Z,27.61
2022-07-29T16:16:33.345Z,27.63
2022-07-29T16:18:38.219Z,27.63
2022-07-29T16:20:42.837Z,27.62
2022-07-29T16:22:47.867Z,27.62
2022-07-29T16:24:52.492Z,27.62
2022-07-29T16:26:57.636Z,27.62
2022-07-29T16:29:03.778Z,27.64
2022-07-29T16:31:08.292Z,27.64
2022-07-29T16:33:12.964Z,27.67
2022-07-29T16:35:19.337Z,27.68
2022-07-29T16:37:23.772Z,27.7
2022-07-29T16:39:32.214Z,27.74
2022-07-29T16:41:36.933Z,27.75
2022-07-29T16:43:41.559Z,27.75
2022-07-29T16:45:46.705Z,27.74
2022-07-29T16:47:53.120Z,27.73
2022-07-29T16:50:04.023Z,27.71
2022-07-29T16:52:08.741Z,27.69
2022-07-29T16:54:13.362Z,27.68
2022-07-29T16:56:17.988Z,27.69
2022-07-29T16:58:22.708Z,27.7
2022-07-29T17:00:27.218Z,27.69
2022-07-29T17:02:32.053Z,27.7
2022-07-29T17:04:36.538Z,27.69
2022-07-29T17:06:41.205Z,27.71
2022-07-29T17:08:46.018Z,27.72
2022-07-29T17:10:50.647Z,27.74
2022-07-29T17:12:55.257Z,27.72
2022-07-29T17:15:00.400Z,27.7
2022-07-29T17:17:06.804Z,27.7
2022-07-29T17:19:41.491Z,27.66
2022-07-29T17:21:46.751Z,27.66
2022-07-29T17:23:54.001Z,27.62
2022-07-29T17:25:58.534Z,27.63
2022-07-29T17:28:03.149Z,27.62
2022-07-29T17:30:07.872Z,27.61
2022-07-29T17:32:12.602Z,27.59
2022-07-29T17:34:17.314Z,27.6
2022-07-29T17:36:22.550Z,27.6
2022-07-29T17:38:27.377Z,27.59
2022-07-29T17:40:31.894Z,27.59
2022-07-29T17:42:36.622Z,27.6
2022-07-29T17:44:41.240Z,27.6
2022-07-29T17:46:46.186Z,27.59
2022-07-29T17:48:51.071Z,27.61
2022-07-29T17:50:55.922Z,27.63
2022-07-29T17:53:00.654Z,27.64
2022-07-29T17:55:12.141Z,27.63
2022-07-29T17:57:16.856Z,27.63
2022-07-29T17:59:21.577Z,27.63
2022-07-29T18:01:26.153Z,27.61
2022-07-29T18:03:30.823Z,27.62
2022-07-29T18:05:35.445Z,27.62
2022-07-29T18:07:40.276Z,27.62
2022-07-29T18:09:44.892Z,27.62
2022-07-29T18:11:49.614Z,27.64
2022-07-29T18:13:54.235Z,27.64
2022-07-29T18:16:00.589Z,27.65
2022-07-29T18:18:05.529Z,27.67
2022-07-29T18:20:10.248Z,27.7
2022-07-29T18:22:14.974Z,27.65
2022-07-29T18:24:19.493Z,27.61
2022-07-29T18:26:24.008Z,27.52
2022-07-29T18:28:38.356Z,27.45
2022-07-29T18:30:44.839Z,27.41
2022-07-29T18:33:05.202Z,27.4
2022-07-29T18:35:25.615Z,27.44
2022-07-29T18:38:00.574Z,27.46
2022-07-29T18:40:07.106Z,27.49
2022-07-29T18:42:11.724Z,27.49
2022-07-29T18:44:16.443Z,27.48
2022-07-29T18:46:21.068Z,27.48
2022-07-29T18:48:28.043Z,27.47
2022-07-29T18:50:32.560Z,27.49
2022-07-29T18:52:37.059Z,27.51
2022-07-29T18:54:41.475Z,27.53
2022-07-29T18:56:45.962Z,27.56
2022-07-29T18:58:50.369Z,27.6
2022-07-29T19:00:54.804Z,27.62
2022-07-29T19:02:59.352Z,27.68
2022-07-29T19:05:04.287Z,27.7
2022-07-29T19:07:08.814Z,27.72
2022-07-29T19:09:13.438Z,27.71
2022-07-29T19:11:17.946Z,27.7
2022-07-29T19:13:22.671Z,27.68
2022-07-29T19:15:27.190Z,27.65
2022-07-29T19:17:31.907Z,27.63
2022-07-29T19:19:36.842Z,27.63
2022-07-29T19:21:41.351Z,27.64
2022-07-29T19:24:00.456Z,27.62
2022-07-29T19:26:20.312Z,27.59
2022-07-29T19:28:28.904Z,27.6
2022-07-29T19:30:33.522Z,27.59
2022-07-29T19:32:38.098Z,27.56
2022-07-29T19:34:42.703Z,27.57
2022-07-29T19:36:54.447Z,27.51
2022-07-29T19:39:00.197Z,27.48
2022-07-29T19:41:04.823Z,27.48
2022-07-29T19:43:49.405Z,27.48
2022-07-29T19:45:57.076Z,27.52
2022-07-29T19:48:01.970Z,27.55
2022-07-29T19:50:06.625Z,27.55
2022-07-29T19:52:11.340Z,27.55
2022-07-29T19:54:16.063Z,27.55
2022-07-29T19:56:20.761Z,27.56
2022-07-29T19:58:27.663Z,27.54
2022-07-29T20:00:33.306Z,27.53
2022-07-29T20:02:38.624Z,27.54
2022-07-29T20:04:43.380Z,27.52
2022-07-29T20:06:48.087Z,27.54
2022-07-29T20:08:56.828Z,27.5
2022-07-29T20:11:03.160Z,27.49
2022-07-29T20:13:07.884Z,27.49
2022-07-29T20:15:13.834Z,27.51
2022-07-29T20:17:21.020Z,27.52
2022-07-29T20:19:25.640Z,27.5
2022-07-29T20:21:30.370Z,27.5
2022-07-29T20:23:34.995Z,27.51
2022-07-29T20:25:39.704Z,27.5
2022-07-29T20:27:44.326Z,27.49
2022-07-29T20:29:49.051Z,27.48
2022-07-29T20:31:54.622Z,27.46
2022-07-29T20:34:01.475Z,27.47
2022-07-29T20:36:06.088Z,27.49
2022-07-29T20:38:12.977Z,27.47
2022-07-29T20:40:22.104Z,27.46
2022-07-29T20:42:26.707Z,27.45
2022-07-29T20:44:31.543Z,27.47
2022-07-29T20:46:36.302Z,27.5
2022-07-29T20:48:41.437Z,27.52
2022-07-29T20:50:46.316Z,27.55
2022-07-29T20:52:50.967Z,27.55
2022-07-29T20:54:55.659Z,27.57
2022-07-29T20:57:00.590Z,27.57
2022-07-29T20:59:06.039Z,27.58
2022-07-29T21:01:10.708Z,27.59
2022-07-29T21:03:15.686Z,27.59
2022-07-29T21:05:20.296Z,27.58
2022-07-29T21:07:24.907Z,27.57
2022-07-29T21:09:29.539Z,27.57
2022-07-29T21:11:43.942Z,27.6
2022-07-29T21:13:49.635Z,27.59
2022-07-29T21:15:54.387Z,27.58
2022-07-29T21:17:59.188Z,27.57
2022-07-29T21:20:03.704Z,27.59
2022-07-29T21:22:08.418Z,27.59
2022-07-29T21:24:13.046Z,27.6
2022-07-29T21:26:17.664Z,27.58
2022-07-29T21:28:22.284Z,27.6
2022-07-29T21:30:26.808Z,27.59
2022-07-29T21:32:31.340Z,27.59
2022-07-29T21:34:36.149Z,27.56
2022-07-29T21:36:48.003Z,27.58
2022-07-29T21:38:53.269Z,27.57
2022-07-29T21:40:58.094Z,27.52
2022-07-29T21:43:02.620Z,27.47
2022-07-29T21:45:07.454Z,27.49
2022-07-29T21:47:15.641Z,27.5
2022-07-29T21:49:20.476Z,27.5
2022-07-29T21:51:25.496Z,27.49
2022-07-29T21:53:30.701Z,27.45
2022-07-29T21:55:35.460Z,27.44
2022-07-29T21:57:40.484Z,27.42
2022-07-29T21:59:45.108Z,27.37
2022-07-29T22:01:49.723Z,27.37
2022-07-29T22:03:54.491Z,27.38
2022-07-29T22:05:59.787Z,27.41
2022-07-29T22:08:04.409Z,27.47
2022-07-29T22:10:09.035Z,27.51
2022-07-29T22:12:15.082Z,27.52
2022-07-29T22:14:19.705Z,27.53
2022-07-29T22:16:24.305Z,27.52
2022-07-29T22:18:29.252Z,27.53
2022-07-29T22:20:33.782Z,27.51
2022-07-29T22:22:39.518Z,27.49
2022-07-29T22:24:44.241Z,27.48
2022-07-29T22:26:48.757Z,27.49
2022-07-29T22:28:53.376Z,27.51
2022-07-29T22:30:58.069Z,27.52
2022-07-29T22:33:02.833Z,27.53
2022-07-29T22:35:07.554Z,27.5
2022-07-29T22:37:12.166Z,27.47
2022-07-29T22:39:16.689Z,27.47
2022-07-29T22:41:21.205Z,27.46
2022-07-29T22:43:25.822Z,27.47
2022-07-29T22:45:30.387Z,27.46
2022-07-29T22:47:39.078Z,27.46
2022-07-29T22:50:01.907Z,27.46
2022-07-29T22:52:06.630Z,27.47
2022-07-29T22:54:11.259Z,27.47
2022-07-29T22:56:15.866Z,27.45
2022-07-29T22:58:20.396Z,27.45
2022-07-29T23:00:25.022Z,27.45
2022-07-29T23:02:29.634Z,27.45
2022-07-29T23:04:34.559Z,27.44
2022-07-29T23:06:39.285Z,27.44
2022-07-29T23:08:44.004Z,27.45
2022-07-29T23:10:48.626Z,27.46
2022-07-29T23:12:53.242Z,27.47
2022-07-29T23:14:58.683Z,27.44
2022-07-29T23:17:03.661Z,27.45
2022-07-29T23:19:09.049Z,27.44
2022-07-29T23:21:13.578Z,27.45
2022-07-29T23:23:18.188Z,27.46
2022-07-29T23:25:23.943Z,27.47
2022-07-29T23:27:28.670Z,27.47
2022-07-29T23:29:36.561Z,27.47
2022-07-29T23:31:41.950Z,27.46
2022-07-29T23:33:52.967Z,27.44
2022-07-29T23:35:57.590Z,27.42
2022-07-29T23:38:02.206Z,27.44
2022-07-29T23:40:09.720Z,27.4
2022-07-29T23:42:18.520Z,27.37
2022-07-29T23:44:23.341Z,27.37
2022-07-29T23:46:27.878Z,27.35
2022-07-29T23:48:32.579Z,27.34
2022-07-29T23:50:37.197Z,27.31
2022-07-29T23:52:41.720Z,27.33
2022-07-29T23:54:47.361Z,27.32
2022-07-29T23:56:51.993Z,27.31
2022-07-29T23:58:56.599Z,27.3
